Time;durP1;ratioP1;P1;durP2;ratioP2;P2;SDS_P1;SDS_P2;PMS_P1;PMS_P2;Temp;Humidity;BMP_temperature;BMP_pressure;BME280_temperature;BME280_humidity;BME280_pressure;Samples;Min_cycle;Max_cycle;Signal;HPM_P1;HPM_P2
2021/12/26 00:00:09;;;;;;;;;;;;;;;-2.66;51.39;100821.28;5145758;27;26819;-79
2021/12/26 00:02:34;;;;;;;;;;;;;;;-2.67;51.45;100817.91;5143485;27;26713;-80
2021/12/26 00:05:00;;;;;;;;;;;;;;;-2.63;51.02;100808.72;5151700;27;26909;-80
2021/12/26 00:07:25;;;;;;;;;;;;;;;-2.66;51.07;100818.75;5156334;27;27099;-79
2021/12/26 00:09:50;;;;;;;;;;;;;;;-2.66;51.29;100816.25;5146607;27;26513;-80
2021/12/26 00:12:15;;;;;;;;;;;;;;;-2.65;51.35;100820.44;5139576;27;26893;-80
2021/12/26 00:14:41;;;;;;;;;;;;;;;-2.65;51.15;100815.41;5138970;27;50660;-80
2021/12/26 00:17:06;;;;;;;;;;;;;;;-2.68;51.32;100816.19;5138632;27;26869;-80
2021/12/26 00:19:32;;;;;;;;;;;;;;;-2.63;50.61;100816.31;5140131;27;26755;-80
2021/12/26 00:21:57;;;;;;;;;;;;;;;-2.67;51.16;100812.00;5141156;27;28195;-80
2021/12/26 00:24:22;;;;;;;;;;;;;;;-2.68;51.04;100810.25;5141559;27;54357;-80
2021/12/26 00:26:47;;;;;;;;;;;;;;;-2.67;51.20;100817.91;5148401;27;26892;-80
2021/12/26 00:29:12;;;;;;;;;;;;;;;-2.69;51.07;100811.06;5151770;27;26990;-79
2021/12/26 00:31:38;;;;;;;;;;;;;;;-2.70;50.98;100812.72;5142258;27;26905;-79
2021/12/26 00:34:04;;;;;;;;;;;;;;;-2.69;51.38;100803.47;5122149;27;26879;-79
2021/12/26 00:36:29;;;;;;;;;;;;;;;-2.69;51.06;100808.53;5144905;27;27839;-79
2021/12/26 00:38:54;;;;;;;;;;;;;;;-2.69;51.16;100800.97;5144999;27;26792;-79
2021/12/26 00:41:19;;;;;;;;;;;;;;;-2.69;51.36;100803.47;5142532;27;27540;-79
2021/12/26 00:43:45;;;;;;;;;;;;;;;-2.68;51.19;100795.97;5144848;27;53715;-80
2021/12/26 00:46:10;;;;;;;;;;;;;;;-2.68;50.90;100792.56;5147970;27;26867;-79
2021/12/26 00:48:35;;;;;;;;;;;;;;;-2.69;50.82;100798.44;5147975;27;27056;-80
2021/12/26 00:51:00;;;;;;;;;;;;;;;-2.70;50.94;100796.75;5141245;27;55650;-80
2021/12/26 00:53:25;;;;;;;;;;;;;;;-2.70;51.15;100789.16;5142139;27;33909;-80
2021/12/26 00:55:51;;;;;;;;;;;;;;;-2.70;51.15;100776.53;5141782;27;39500;-80
2021/12/26 00:58:16;;;;;;;;;;;;;;;-2.69;50.74;100784.13;5142188;27;26626;-80
2021/12/26 01:00:43;;;;;;;;;;;;;;;-2.67;50.42;100781.66;5147113;27;26942;-80
2021/12/26 01:03:09;;;;;;;;;;;;;;;-2.70;50.84;100791.69;5147472;27;26922;-79
2021/12/26 01:05:35;;;;;;;;;;;;;;;-2.71;50.96;100798.41;5142324;27;26863;-79
2021/12/26 01:08:03;;;;;;;;;;;;;;;-2.70;50.81;100806.84;5142091;27;26989;-80
2021/12/26 01:10:38;;;;;;;;;;;;;;;-2.69;50.70;100798.44;5141669;27;26841;-80
2021/12/26 01:13:14;;;;;;;;;;;;;;;-2.69;50.95;100813.59;5142038;27;26899;-80
2021/12/26 01:15:40;;;;;;;;;;;;;;;-2.67;50.42;100801.88;5146031;27;26904;-80
2021/12/26 01:18:05;;;;;;;;;;;;;;;-2.70;50.67;100796.75;5146243;27;26966;-80
2021/12/26 01:23:06;;;;;;;;;;;;;;;-2.74;50.51;100790.75;5138671;27;27008;-80
2021/12/26 01:25:32;;;;;;;;;;;;;;;-2.74;50.73;100794.94;5145051;27;26789;-80
2021/12/26 01:27:57;;;;;;;;;;;;;;;-2.75;50.80;100788.16;5146000;27;26839;-80
2021/12/26 01:30:22;;;;;;;;;;;;;;;-2.74;50.75;100789.88;5147224;27;27716;-79
2021/12/26 01:32:47;;;;;;;;;;;;;;;-2.73;50.79;100781.47;5147489;27;26954;-79
2021/12/26 01:35:12;;;;;;;;;;;;;;;-2.73;50.53;100786.53;5146519;27;57214;-79
2021/12/26 01:37:38;;;;;;;;;;;;;;;-2.76;50.71;100788.97;5147135;27;26905;-80
2021/12/26 01:40:04;;;;;;;;;;;;;;;-2.76;50.64;100782.25;5149806;27;55749;-80
2021/12/26 01:42:29;;;;;;;;;;;;;;;-2.74;50.34;100777.25;5150688;27;26712;-80
2021/12/26 01:44:54;;;;;;;;;;;;;;;-2.76;50.45;100772.13;5149259;27;26804;-79
2021/12/26 01:47:19;;;;;;;;;;;;;;;-2.77;50.55;100772.09;5145978;27;26996;-79
2021/12/26 01:49:45;;;;;;;;;;;;;;;-2.79;50.70;100771.19;5144214;27;31380;-79
2021/12/26 01:52:10;;;;;;;;;;;;;;;-2.79;50.47;100778.78;5144077;27;26847;-80
2021/12/26 01:54:59;;;;;;;;;;;;;;;-2.79;50.72;100776.25;5150517;27;33230;-79
2021/12/26 01:57:24;;;;;;;;;;;;;;;-2.80;50.80;100780.44;5142032;27;26936;-79
2021/12/26 01:59:49;;;;;;;;;;;;;;;-2.79;50.85;100781.31;5142159;27;35144;-79
2021/12/26 02:02:14;;;;;;;;;;;;;;;-2.78;50.88;100783.88;5141838;27;55046;-79
2021/12/26 02:04:40;;;;;;;;;;;;;;;-2.76;50.96;100787.31;5146044;27;27477;-79
2021/12/26 02:07:07;;;;;;;;;;;;;;;-2.76;50.76;100773.81;5147638;27;26856;-79
2021/12/26 02:09:32;;;;;;;;;;;;;;;-2.74;51.05;100774.72;5145619;27;28229;-79
2021/12/26 02:11:57;;;;;;;;;;;;;;;-2.74;50.90;100764.63;5141254;27;26999;-79
2021/12/26 02:14:23;;;;;;;;;;;;;;;-2.76;50.39;100771.28;5140983;27;27778;-79
2021/12/26 02:16:48;;;;;;;;;;;;;;;-2.79;50.74;100766.16;5140895;27;26811;-79
2021/12/26 02:19:13;;;;;;;;;;;;;;;-2.81;50.84;100777.91;5140737;27;27748;-78
2021/12/26 02:24:15;;;;;;;;;;;;;;;-2.85;50.76;100760.94;5137895;27;27567;-78
2021/12/26 02:29:25;;;;;;;;;;;;;;;-2.89;50.47;100764.19;5143668;27;26726;-79
2021/12/26 02:31:51;;;;;;;;;;;;;;;-2.90;50.49;100762.47;5140826;27;26872;-79
2021/12/26 02:34:16;;;;;;;;;;;;;;;-2.92;50.50;100754.00;5141208;27;49992;-78
2021/12/26 02:36:41;;;;;;;;;;;;;;;-2.91;50.69;100751.50;5143002;27;48915;-78
2021/12/26 02:39:06;;;;;;;;;;;;;;;-2.90;50.60;100758.28;5142330;27;26795;-79
2021/12/26 02:41:31;;;;;;;;;;;;;;;-2.87;50.47;100752.44;5140196;27;26802;-79
2021/12/26 02:43:58;;;;;;;;;;;;;;;-2.88;50.68;100745.66;5140642;27;51916;-79
2021/12/26 02:46:24;;;;;;;;;;;;;;;-2.88;50.32;100740.59;5153985;27;26888;-78
2021/12/26 02:48:49;;;;;;;;;;;;;;;-2.86;50.76;100744.06;5153197;27;26877;-79
2021/12/26 02:51:15;;;;;;;;;;;;;;;-2.85;49.88;100745.78;5140502;27;29938;-78
2021/12/26 02:53:40;;;;;;;;;;;;;;;-2.86;50.60;100744.06;5141989;27;32532;-78
2021/12/26 02:56:05;;;;;;;;;;;;;;;-2.85;50.31;100748.31;5151596;27;26994;-78
2021/12/26 02:58:31;;;;;;;;;;;;;;;-2.85;50.18;100740.72;5152366;27;26830;-79
2021/12/26 03:00:59;;;;;;;;;;;;;;;-2.86;50.74;100741.53;5140719;27;27018;-79
2021/12/26 03:03:25;;;;;;;;;;;;;;;-2.83;50.43;100744.13;5139730;27;26744;-79
2021/12/26 03:05:54;;;;;;;;;;;;;;;-2.83;50.47;100746.66;5140557;27;26745;-79
2021/12/26 03:08:20;;;;;;;;;;;;;;;-2.83;50.94;100744.13;5139422;27;27769;-78
2021/12/26 03:10:45;;;;;;;;;;;;;;;-2.82;50.21;100746.72;5139166;27;54240;-79
2021/12/26 03:13:12;;;;;;;;;;;;;;;-2.85;49.90;100741.59;5139723;27;27506;-79
2021/12/26 03:15:39;;;;;;;;;;;;;;;-2.85;50.13;100745.78;5143506;27;26684;-79
2021/12/26 03:18:05;;;;;;;;;;;;;;;-2.86;50.24;100744.06;5149574;27;26867;-79
2021/12/26 03:20:32;;;;;;;;;;;;;;;-2.87;50.43;100742.34;5145319;27;26785;-78
2021/12/26 03:22:59;;;;;;;;;;;;;;;-2.87;50.43;100738.13;5143578;27;27682;-78
2021/12/26 03:25:25;;;;;;;;;;;;;;;-2.89;50.59;100733.88;5143220;27;26783;-78
2021/12/26 03:27:50;;;;;;;;;;;;;;;-2.89;50.57;100723.75;5142513;27;28024;-78
2021/12/26 03:30:18;;;;;;;;;;;;;;;-2.89;50.40;100733.88;5146488;27;27040;-80
2021/12/26 03:32:43;;;;;;;;;;;;;;;-2.90;50.21;100739.72;5147328;27;26779;-79
2021/12/26 03:35:08;;;;;;;;;;;;;;;-2.90;50.58;100734.66;5142378;27;26736;-80
2021/12/26 03:37:34;;;;;;;;;;;;;;;-2.91;50.76;100741.38;5140176;27;27582;-80
2021/12/26 03:39:59;;;;;;;;;;;;;;;-2.92;50.24;100740.53;5140510;27;26694;-80
2021/12/26 03:42:24;;;;;;;;;;;;;;;-2.92;50.08;100737.16;5157170;27;26743;-79
2021/12/26 03:44:50;;;;;;;;;;;;;;;-2.95;50.22;100740.44;5154109;27;26499;-78
2021/12/26 03:47:15;;;;;;;;;;;;;;;-2.98;50.36;100742.91;5144680;27;27292;-78
2021/12/26 03:49:41;;;;;;;;;;;;;;;-2.98;50.71;100740.38;5141917;27;26877;-78
2021/12/26 03:52:06;;;;;;;;;;;;;;;-2.98;50.63;100740.38;5139568;27;27645;-78
2021/12/26 03:54:31;;;;;;;;;;;;;;;-2.96;50.79;100741.25;5141136;27;26954;-78
2021/12/26 03:56:57;;;;;;;;;;;;;;;-2.95;50.86;100742.97;5142603;27;26988;-78
2021/12/26 03:59:22;;;;;;;;;;;;;;;-2.94;50.61;100742.19;5140719;27;47000;-78
2021/12/26 04:01:47;;;;;;;;;;;;;;;-2.93;50.68;100737.97;5138810;27;48478;-79
2021/12/26 04:04:12;;;;;;;;;;;;;;;-2.94;50.52;100732.06;5140752;27;26987;-78
2021/12/26 04:06:38;;;;;;;;;;;;;;;-2.97;50.60;100736.19;5142531;27;27516;-78
2021/12/26 04:09:03;;;;;;;;;;;;;;;-2.96;50.83;100740.41;5142968;27;26412;-79
2021/12/26 04:11:29;;;;;;;;;;;;;;;-2.95;51.00;100735.41;5142856;27;27029;-78
2021/12/26 04:13:54;;;;;;;;;;;;;;;-2.92;50.79;100735.47;5142730;27;26803;-78
2021/12/26 04:16:19;;;;;;;;;;;;;;;-2.89;51.04;100729.69;5142487;27;27045;-78
2021/12/26 04:18:44;;;;;;;;;;;;;;;-2.87;51.00;100732.22;5138470;27;53952;-78
2021/12/26 04:21:10;;;;;;;;;;;;;;;-2.88;50.78;100725.44;5142439;27;44347;-78
2021/12/26 04:23:35;;;;;;;;;;;;;;;-2.85;50.98;100731.47;5142455;27;26941;-78
2021/12/26 04:26:00;;;;;;;;;;;;;;;-2.84;50.99;100719.66;5142418;27;26877;-78
2021/12/26 04:28:26;;;;;;;;;;;;;;;-2.83;50.77;100718.88;5142746;27;27007;-78
2021/12/26 04:30:51;;;;;;;;;;;;;;;-2.84;50.92;100712.09;5142491;27;27834;-78
2021/12/26 04:33:16;;;;;;;;;;;;;;;-2.84;50.94;100718.00;5141473;27;26890;-80
2021/12/26 04:35:41;;;;;;;;;;;;;;;-2.84;50.75;100707.03;5149913;27;30826;-78
2021/12/26 04:38:06;;;;;;;;;;;;;;;-2.86;50.92;100703.63;5149506;27;27841;-79
2021/12/26 04:40:33;;;;;;;;;;;;;;;-2.87;50.75;100697.72;5140552;27;55674;-78
2021/12/26 04:42:58;;;;;;;;;;;;;;;-2.87;51.08;100696.84;5142480;27;26985;-78
2021/12/26 04:45:25;;;;;;;;;;;;;;;-2.89;50.87;100704.41;5139528;27;27092;-79
2021/12/26 04:47:50;;;;;;;;;;;;;;;-2.88;50.73;100700.19;5139246;27;26966;-80
2021/12/26 04:50:21;;;;;;;;;;;;;;;-2.88;50.77;100705.25;5150275;27;27689;-80
2021/12/26 04:52:46;;;;;;;;;;;;;;;-2.90;51.03;100696.78;5154530;27;27016;-79
2021/12/26 04:55:13;;;;;;;;;;;;;;;-2.92;50.61;100695.06;5143619;27;28585;-80
2021/12/26 04:57:39;;;;;;;;;;;;;;;-2.94;50.74;100685.72;5140532;27;26784;-80
2021/12/26 05:00:05;;;;;;;;;;;;;;;-2.94;50.85;100676.50;5104292;27;27390;-80
2021/12/26 05:02:32;;;;;;;;;;;;;;;-2.95;50.77;100679.81;5143861;27;26543;-80
2021/12/26 05:04:57;;;;;;;;;;;;;;;-2.95;50.49;100674.78;5145379;27;27218;-80
2021/12/26 05:07:22;;;;;;;;;;;;;;;-2.96;50.63;100670.53;5146403;27;33252;-80
2021/12/26 05:09:48;;;;;;;;;;;;;;;-2.97;50.24;100671.34;5141503;27;55966;-80
2021/12/26 05:12:13;;;;;;;;;;;;;;;-2.98;50.60;100659.53;5138747;27;27016;-78
2021/12/26 05:14:38;;;;;;;;;;;;;;;-2.99;50.70;100662.88;5141576;27;27021;-77
2021/12/26 05:17:04;;;;;;;;;;;;;;;-2.96;50.87;100673.06;5141495;27;33646;-78
2021/12/26 05:19:29;;;;;;;;;;;;;;;-2.94;50.84;100666.38;5141251;27;27003;-78
2021/12/26 05:21:54;;;;;;;;;;;;;;;-2.92;50.52;100663.88;5141280;27;53873;-78
2021/12/26 05:24:19;;;;;;;;;;;;;;;-2.92;50.08;100668.94;5146733;27;27064;-78
2021/12/26 05:26:44;;;;;;;;;;;;;;;-2.92;50.40;100665.56;5141192;27;55064;-79
2021/12/26 05:29:09;;;;;;;;;;;;;;;-2.93;50.24;100669.78;5144060;27;26544;-79
2021/12/26 05:31:35;;;;;;;;;;;;;;;-2.94;50.14;100660.47;5141721;27;28033;-79
2021/12/26 05:34:00;;;;;;;;;;;;;;;-2.94;50.43;100670.56;5123341;27;27676;-79
2021/12/26 05:36:25;;;;;;;;;;;;;;;-2.94;50.23;100666.38;5141632;27;45281;-79
2021/12/26 05:38:50;;;;;;;;;;;;;;;-2.92;50.96;100671.47;5142308;27;27002;-79
2021/12/26 05:41:16;;;;;;;;;;;;;;;-2.89;50.66;100668.19;5123392;27;26982;-79
2021/12/26 05:43:41;;;;;;;;;;;;;;;-2.84;50.82;100671.66;5141430;27;46020;-78
2021/12/26 05:46:06;;;;;;;;;;;;;;;-2.95;50.59;100654.56;5146769;27;26591;-78
2021/12/26 05:48:31;;;;;;;;;;;;;;;-2.78;50.64;100671.84;5147897;27;42029;-78
2021/12/26 05:50:56;;;;;;;;;;;;;;;-2.75;50.67;100671.91;5144715;27;26840;-78
2021/12/26 05:53:22;;;;;;;;;;;;;;;-2.73;50.77;100667.75;5144728;27;26853;-78
2021/12/26 05:55:47;;;;;;;;;;;;;;;-2.72;50.72;100672.84;5141011;27;55163;-78
2021/12/26 05:58:12;;;;;;;;;;;;;;;-2.69;50.88;100677.13;5141321;27;57317;-79
2021/12/26 06:00:37;;;;;;;;;;;;;;;-2.69;50.44;100677.97;5141327;27;46423;-78
2021/12/26 06:03:02;;;;;;;;;;;;;;;-2.72;50.46;100677.91;5140823;27;56624;-79
2021/12/26 06:05:27;;;;;;;;;;;;;;;-2.72;50.42;100677.03;5141594;27;26898;-79
2021/12/26 06:07:53;;;;;;;;;;;;;;;-2.74;50.53;100681.22;5141882;27;27061;-79
2021/12/26 06:10:18;;;;;;;;;;;;;;;-2.73;50.72;100681.25;5153204;27;26810;-79
2021/12/26 06:12:43;;;;;;;;;;;;;;;-2.73;50.65;100681.25;5158121;27;26891;-79
2021/12/26 06:15:09;;;;;;;;;;;;;;;-2.72;50.48;100672.00;5149457;27;27054;-78
2021/12/26 06:17:34;;;;;;;;;;;;;;;-2.72;50.56;100675.38;5145384;27;26875;-79
2021/12/26 06:19:59;;;;;;;;;;;;;;;-2.74;50.71;100677.03;5144805;27;39076;-78
2021/12/26 06:22:24;;;;;;;;;;;;;;;-2.76;50.64;100670.19;5143527;27;55562;-79
2021/12/26 06:24:49;;;;;;;;;;;;;;;-2.78;50.73;100666.78;5142617;27;55247;-79
2021/12/26 06:27:15;;;;;;;;;;;;;;;-2.81;50.81;100657.44;5144073;27;40745;-79
2021/12/26 06:29:40;;;;;;;;;;;;;;;-2.82;50.75;100655.75;5145984;27;26927;-79
2021/12/26 06:32:05;;;;;;;;;;;;;;;-2.85;50.94;100657.34;5140661;27;38255;-78
2021/12/26 06:34:31;;;;;;;;;;;;;;;-2.86;50.62;100648.03;5142310;27;26802;-79
2021/12/26 06:36:56;;;;;;;;;;;;;;;-2.90;50.56;100646.25;5144801;27;26978;-78
2021/12/26 06:39:21;;;;;;;;;;;;;;;-2.92;50.71;100652.94;5149011;27;26657;-79
2021/12/26 06:41:46;;;;;;;;;;;;;;;-2.94;50.75;100643.66;5144149;27;52197;-78
2021/12/26 06:44:12;;;;;;;;;;;;;;;-2.95;50.54;100639.41;5145500;27;26512;-78
2021/12/26 06:46:39;;;;;;;;;;;;;;;-2.96;50.79;100641.88;5144884;27;26928;-78
2021/12/26 06:49:04;;;;;;;;;;;;;;;-2.98;50.61;100639.31;5144457;27;26999;-78
2021/12/26 06:51:30;;;;;;;;;;;;;;;-2.98;50.82;100624.16;5144867;27;27834;-78
2021/12/26 06:53:55;;;;;;;;;;;;;;;-2.97;51.17;100620.84;5145587;27;26815;-78
2021/12/26 06:56:20;;;;;;;;;;;;;;;-2.97;51.00;100625.88;5149931;27;26796;-78
2021/12/26 06:58:45;;;;;;;;;;;;;;;-2.97;50.72;100625.88;5146837;27;49093;-78
2021/12/26 07:01:10;;;;;;;;;;;;;;;-2.98;50.80;100629.22;5140067;27;56013;-79
2021/12/26 07:03:36;;;;;;;;;;;;;;;-2.97;51.02;100630.94;5141200;27;26781;-78
2021/12/26 07:06:01;;;;;;;;;;;;;;;-2.95;51.02;100633.50;5144495;27;26862;-78
2021/12/26 07:08:26;;;;;;;;;;;;;;;-2.96;50.64;100626.72;5144113;27;26986;-78
2021/12/26 07:10:52;;;;;;;;;;;;;;;-2.97;51.03;100625.88;5140968;27;26954;-79
2021/12/26 07:13:17;;;;;;;;;;;;;;;-2.96;50.93;100632.63;5140747;27;26832;-79
2021/12/26 07:15:42;;;;;;;;;;;;;;;-2.97;50.96;100630.94;5144432;27;26901;-79
2021/12/26 07:18:07;;;;;;;;;;;;;;;-2.95;51.25;100639.41;5143076;27;53813;-79
2021/12/26 07:20:33;;;;;;;;;;;;;;;-2.90;51.37;100641.19;5139852;27;57675;-79
2021/12/26 07:22:58;;;;;;;;;;;;;;;-2.85;51.41;100644.72;5141151;27;26862;-79
2021/12/26 07:25:23;;;;;;;;;;;;;;;-2.79;51.47;100640.66;5140503;27;26959;-79
2021/12/26 07:27:48;;;;;;;;;;;;;;;-2.74;51.39;100638.25;5140461;27;26830;-79
2021/12/26 07:30:14;;;;;;;;;;;;;;;-2.69;51.72;100641.75;5141946;27;26757;-79
2021/12/26 07:32:39;;;;;;;;;;;;;;;-2.64;51.21;100641.06;5143815;27;26863;-79
2021/12/26 07:35:05;;;;;;;;;;;;;;;-2.58;51.43;100640.34;5144073;27;26730;-79
2021/12/26 07:37:30;;;;;;;;;;;;;;;-2.49;51.47;100650.69;5143762;27;26700;-79
2021/12/26 07:39:55;;;;;;;;;;;;;;;-2.42;51.62;100654.22;5140628;27;57322;-78
2021/12/26 07:42:20;;;;;;;;;;;;;;;-2.36;51.56;100652.69;5140372;27;26814;-79
2021/12/26 07:44:46;;;;;;;;;;;;;;;-2.29;51.58;100659.63;5146747;27;26873;-78
2021/12/26 07:47:11;;;;;;;;;;;;;;;-2.21;51.27;100653.06;5154433;27;26490;-79
2021/12/26 07:49:36;;;;;;;;;;;;;;;-2.15;51.76;100658.28;5148581;27;26975;-79
2021/12/26 07:52:03;;;;;;;;;;;;;;;-2.07;51.33;100661.84;5138930;27;53481;-79
2021/12/26 07:54:28;;;;;;;;;;;;;;;-2.00;51.75;100663.69;5148029;27;27493;-79
2021/12/26 07:56:54;;;;;;;;;;;;;;;-1.91;51.78;100662.19;5150933;27;26601;-78
2021/12/26 07:59:20;;;;;;;;;;;;;;;-1.86;51.58;100650.50;5147562;27;27638;-79
2021/12/26 08:01:45;;;;;;;;;;;;;;;-1.79;51.33;100657.41;5151349;27;26517;-79
2021/12/26 08:04:11;;;;;;;;;;;;;;;-1.75;51.10;100669.28;5151325;27;26818;-78
2021/12/26 08:06:36;;;;;;;;;;;;;;;-1.76;51.15;100662.56;5147047;27;26995;-78
2021/12/26 08:09:02;;;;;;;;;;;;;;;-1.79;51.31;100670.03;5143260;27;26837;-79
2021/12/26 08:11:28;;;;;;;;;;;;;;;-1.80;50.34;100666.66;5139390;27;26862;-79
2021/12/26 08:13:53;;;;;;;;;;;;;;;-1.82;50.46;100662.41;5139122;27;57262;-79
2021/12/26 08:16:18;;;;;;;;;;;;;;;-1.84;50.55;100664.91;5140565;27;26817;-79
2021/12/26 08:18:44;;;;;;;;;;;;;;;-1.84;50.74;100659.84;5141270;27;26628;-79
2021/12/26 08:21:09;;;;;;;;;;;;;;;-1.87;50.56;100648.78;5143095;27;26773;-79
2021/12/26 08:23:34;;;;;;;;;;;;;;;-1.92;50.12;100650.38;5142045;27;27628;-79
2021/12/26 08:26:00;;;;;;;;;;;;;;;-1.97;50.35;100658.69;5142794;27;45371;-78
2021/12/26 08:28:25;;;;;;;;;;;;;;;-2.02;50.16;100655.19;5142751;27;27047;-79
2021/12/26 08:30:50;;;;;;;;;;;;;;;-2.05;50.12;100660.19;5142430;27;26955;-78
2021/12/26 08:33:16;;;;;;;;;;;;;;;-2.09;50.25;100648.28;5142593;27;26719;-78
2021/12/26 08:35:42;;;;;;;;;;;;;;;-2.11;50.45;100649.94;5139343;27;26744;-79
2021/12/26 08:38:08;;;;;;;;;;;;;;;-2.13;50.42;100656.63;5140092;27;26983;-79
2021/12/26 08:40:33;;;;;;;;;;;;;;;-2.13;50.74;100656.63;5144745;27;27003;-79
2021/12/26 08:42:59;;;;;;;;;;;;;;;-2.13;50.88;100651.56;5145154;27;26840;-79
2021/12/26 08:45:25;;;;;;;;;;;;;;;-2.13;50.43;100651.56;5142317;27;46952;-78
2021/12/26 08:47:53;;;;;;;;;;;;;;;-2.15;50.41;100653.22;5144705;27;27685;-79
2021/12/26 08:50:18;;;;;;;;;;;;;;;-2.15;50.36;100653.22;5143614;27;26807;-78
2021/12/26 08:52:43;;;;;;;;;;;;;;;-2.15;51.09;100658.28;5142763;27;27497;-78
2021/12/26 08:55:10;;;;;;;;;;;;;;;-2.15;50.90;100658.28;5142341;27;26805;-78
2021/12/26 08:57:35;;;;;;;;;;;;;;;-2.10;50.71;100656.69;5142595;27;27055;-78
2021/12/26 09:00:01;;;;;;;;;;;;;;;-2.05;51.00;100654.28;5142194;27;44027;-78
2021/12/26 09:02:26;;;;;;;;;;;;;;;-2.00;51.20;100652.72;5142260;27;27687;-78
2021/12/26 09:04:51;;;;;;;;;;;;;;;-1.95;51.10;100656.22;5143455;27;26605;-78
2021/12/26 09:07:16;;;;;;;;;;;;;;;-1.90;51.48;100658.84;5142868;27;26871;-78
2021/12/26 09:09:42;;;;;;;;;;;;;;;-1.83;51.15;100658.16;5152038;27;26882;-78
2021/12/26 09:12:08;;;;;;;;;;;;;;;-1.78;50.90;100657.44;5155076;27;26725;-78
2021/12/26 09:14:33;;;;;;;;;;;;;;;-1.72;50.91;100666.81;5146085;27;26869;-78
2021/12/26 09:16:59;;;;;;;;;;;;;;;-1.68;51.11;100666.06;5143266;27;42932;-78
2021/12/26 09:19:27;;;;;;;;;;;;;;;-1.64;51.46;100662.78;5148770;27;27000;-78
2021/12/26 09:21:53;;;;;;;;;;;;;;;-1.60;51.25;100659.50;5153462;27;27025;-79
2021/12/26 09:24:18;;;;;;;;;;;;;;;-1.56;51.12;100661.28;5143266;27;26922;-79
2021/12/26 09:26:43;;;;;;;;;;;;;;;-1.53;51.50;100656.28;5143086;27;26618;-79
2021/12/26 09:29:09;;;;;;;;;;;;;;;-1.49;50.95;100658.91;5143482;27;26944;-79
2021/12/26 09:31:34;;;;;;;;;;;;;;;-1.44;51.09;100661.56;5145092;27;27781;-79
2021/12/26 09:33:59;;;;;;;;;;;;;;;-1.41;51.51;100656.53;5144241;27;54889;-78
2021/12/26 09:36:26;;;;;;;;;;;;;;;-1.38;51.19;100651.53;5144836;27;26859;-79
2021/12/26 09:38:51;;;;;;;;;;;;;;;-1.34;50.85;100653.31;5156005;27;26752;-78
2021/12/26 09:41:16;;;;;;;;;;;;;;;-1.30;51.44;100657.63;5144326;27;50630;-79
2021/12/26 09:43:41;;;;;;;;;;;;;;;-1.24;51.71;100655.22;5144262;27;53999;-78
2021/12/26 09:46:06;;;;;;;;;;;;;;;-1.20;51.64;100651.91;5146493;27;27732;-79
2021/12/26 09:48:32;;;;;;;;;;;;;;;-1.14;51.26;100646.97;5145878;27;26723;-79
2021/12/26 09:50:57;;;;;;;;;;;;;;;-1.10;50.96;100646.22;5142890;27;28077;-79
2021/12/26 09:53:23;;;;;;;;;;;;;;;-1.07;51.28;100643.72;5143305;27;26788;-79
2021/12/26 09:55:48;;;;;;;;;;;;;;;-1.03;51.12;100637.91;5145299;27;26887;-79
2021/12/26 09:58:14;;;;;;;;;;;;;;;-0.97;50.68;100635.47;5144900;27;26807;-79
2021/12/26 10:00:42;;;;;;;;;;;;;;;-0.94;51.45;100638.91;5144920;27;27568;-78
2021/12/26 10:03:22;;;;;;;;;;;;;;;-0.89;51.12;100637.28;5145041;27;26876;-78
2021/12/26 10:05:54;;;;;;;;;;;;;;;-0.85;50.77;100639.06;5141643;27;27483;-80
2021/12/26 10:08:19;;;;;;;;;;;;;;;-0.78;51.35;100635.78;5140830;27;26904;-79
2021/12/26 10:11:02;;;;;;;;;;;;;;;-0.73;50.78;100629.13;5142703;27;26980;-80
2021/12/26 10:13:39;;;;;;;;;;;;;;;-0.70;51.59;100629.19;5142249;27;26786;-80
2021/12/26 10:16:05;;;;;;;;;;;;;;;-0.68;50.92;100625.00;5145175;27;27005;-79
2021/12/26 10:18:30;;;;;;;;;;;;;;;-0.66;51.15;100625.88;5145228;27;26887;-79
2021/12/26 10:20:55;;;;;;;;;;;;;;;-0.63;51.47;100621.72;5141174;27;26727;-79
2021/12/26 10:23:24;;;;;;;;;;;;;;;-0.63;51.03;100615.78;5139921;27;54923;-79
2021/12/26 10:25:50;;;;;;;;;;;;;;;-0.66;51.48;100615.72;5141046;27;28062;-79
2021/12/26 10:28:15;;;;;;;;;;;;;;;-0.66;51.44;100620.81;5154534;27;33656;-79
2021/12/26 10:30:42;;;;;;;;;;;;;;;-0.66;51.39;100615.72;5144837;27;56102;-79
2021/12/26 10:33:08;;;;;;;;;;;;;;;-0.64;52.20;100614.09;5145833;27;26915;-79
2021/12/26 10:35:33;;;;;;;;;;;;;;;-0.62;51.65;100597.22;5146314;27;26824;-79
2021/12/26 10:37:58;;;;;;;;;;;;;;;-0.54;51.92;100590.59;5145207;27;46912;-79
2021/12/26 10:40:26;;;;;;;;;;;;;;;-0.49;51.67;100599.13;5146321;27;26991;-79
2021/12/26 10:42:52;;;;;;;;;;;;;;;-0.41;51.77;100592.47;5148386;27;26671;-79
2021/12/26 10:45:20;;;;;;;;;;;;;;;-0.37;51.61;100588.28;5143832;27;26903;-80
2021/12/26 10:47:50;;;;;;;;;;;;;;;-0.29;52.55;100596.88;5139735;27;27103;-79
2021/12/26 10:50:18;;;;;;;;;;;;;;;-0.18;52.75;100586.06;5139224;27;27254;-78
2021/12/26 10:52:58;;;;;;;;;;;;;;;-0.08;52.21;100587.06;5138613;27;26906;-78
2021/12/26 10:55:28;;;;;;;;;;;;;;;-0.03;52.77;100585.44;5138492;27;26976;-77
2021/12/26 10:57:53;;;;;;;;;;;;;;;0.06;52.84;100589.78;5138719;27;26827;-78
2021/12/26 11:00:29;;;;;;;;;;;;;;;0.19;52.73;100581.53;5143064;27;28397;-78
2021/12/26 11:03:00;;;;;;;;;;;;;;;0.29;52.08;100583.34;5144564;27;26901;-78
2021/12/26 11:05:28;;;;;;;;;;;;;;;0.35;52.32;100585.94;5144113;27;27704;-78
2021/12/26 11:07:57;;;;;;;;;;;;;;;0.45;52.77;100580.16;5142121;27;26759;-79
2021/12/26 11:10:22;;;;;;;;;;;;;;;0.58;51.83;100571.84;5140668;27;27139;-79
2021/12/26 11:12:49;;;;;;;;;;;;;;;0.66;51.53;100569.38;5140013;27;55049;-79
2021/12/26 11:15:18;;;;;;;;;;;;;;;0.71;51.97;100567.75;5147587;27;26739;-79
2021/12/26 11:17:45;;;;;;;;;;;;;;;0.76;51.99;100566.97;5148448;27;26342;-78
2021/12/26 11:20:17;;;;;;;;;;;;;;;0.84;52.06;100570.44;5140642;27;26950;-78
2021/12/26 11:22:43;;;;;;;;;;;;;;;0.93;51.83;100573.09;5140378;27;26844;-79
2021/12/26 11:25:08;;;;;;;;;;;;;;;0.97;52.50;100567.16;5140128;27;27058;-78
2021/12/26 11:27:34;;;;;;;;;;;;;;;1.04;52.92;100563.00;5138786;27;55197;-79
2021/12/26 11:29:59;;;;;;;;;;;;;;;1.07;52.08;100562.19;5145985;27;27117;-78
2021/12/26 11:32:26;;;;;;;;;;;;;;;1.09;51.60;100555.44;5125901;27;27052;-78
2021/12/26 11:34:52;;;;;;;;;;;;;;;1.08;52.32;100559.66;5143171;27;27410;-77
2021/12/26 11:37:18;;;;;;;;;;;;;;;1.10;51.89;100549.50;5143449;27;26984;-78
2021/12/26 11:39:43;;;;;;;;;;;;;;;1.12;52.53;100546.16;5143773;27;26923;-78
2021/12/26 11:42:27;;;;;;;;;;;;;;;1.12;52.53;100540.19;5143836;27;26694;-78
2021/12/26 11:45:07;;;;;;;;;;;;;;;1.09;52.13;100540.19;5150537;27;27410;-78
2021/12/26 11:47:51;;;;;;;;;;;;;;;1.11;51.88;100533.41;5147099;27;26813;-78
2021/12/26 11:50:39;;;;;;;;;;;;;;;1.13;52.45;100536.78;5144916;27;26749;-79
2021/12/26 11:53:23;;;;;;;;;;;;;;;1.16;52.86;100541.94;5145529;27;26935;-79
2021/12/26 11:56:02;;;;;;;;;;;;;;;1.25;53.45;100547.94;5143315;27;27021;-78
2021/12/26 11:58:46;;;;;;;;;;;;;;;1.37;53.47;100537.00;5142557;27;26833;-78
2021/12/26 12:01:16;;;;;;;;;;;;;;;1.51;53.24;100535.41;5143475;27;26986;-78
2021/12/26 12:03:41;;;;;;;;;;;;;;;1.63;53.16;100540.59;5146066;27;26717;-79
2021/12/26 12:06:07;;;;;;;;;;;;;;;1.72;53.13;100524.53;5139789;27;46471;-79
2021/12/26 12:08:34;;;;;;;;;;;;;;;1.81;53.22;100533.06;5141719;27;26909;-79
2021/12/26 12:11:01;;;;;;;;;;;;;;;1.88;53.50;100527.16;5142707;27;26840;-79
2021/12/26 12:13:26;;;;;;;;;;;;;;;1.98;53.10;100523.00;5141310;27;26510;-79
2021/12/26 12:15:53;;;;;;;;;;;;;;;2.05;53.43;100528.97;5139978;27;54402;-79
2021/12/26 12:18:22;;;;;;;;;;;;;;;2.10;52.87;100522.22;5141252;27;26864;-79
2021/12/26 12:20:48;;;;;;;;;;;;;;;2.11;52.51;100519.66;5145954;27;26873;-78
2021/12/26 12:23:15;;;;;;;;;;;;;;;2.12;52.66;100510.31;5146715;27;26813;-78
2021/12/26 12:25:48;;;;;;;;;;;;;;;2.15;52.67;100512.88;5145651;27;27795;-79
2021/12/26 12:28:16;;;;;;;;;;;;;;;2.16;52.96;100522.22;5146149;27;27000;-79
2021/12/26 12:30:43;;;;;;;;;;;;;;;2.19;52.92;100525.63;5146136;27;26803;-79
2021/12/26 12:33:15;;;;;;;;;;;;;;;2.24;53.01;100515.47;5144549;27;27044;-78
2021/12/26 12:35:53;;;;;;;;;;;;;;;2.26;52.96;100516.31;5154910;27;27216;-79
2021/12/26 12:38:22;;;;;;;;;;;;;;;2.32;52.89;100518.91;5147944;27;26787;-79
2021/12/26 12:40:48;;;;;;;;;;;;;;;2.35;53.17;100518.91;5150228;27;26757;-79